Airfield :
LOGIN :

Register | Disclaimer

   EN    FR    IT 

 










Legend :    VFR   Marginal VFR   IFR   Intensive IFR   Very Intensive IFR
Visi :
Ceiling :
>= 8 km
>= 3000ft
5 to 8 km
1000 to 3000 ft
1500m to 5 km
500 to 1000 ft
800 to 1500m
200 to 500 ft
< 800m
< 200 ft
Symbols :   Thunderstorms  Fog  Heavy snow  Heavy precipitations  Wind > 20 kt
SIGMETs :     Misc.  Thunderstorms  Icing  Turbulence  Mountain Waves  Volcanic Ashes






- Airport Elevation : 121 ft
- IATA code : HUY


EGNJ - Humberside

CURRENT METAR :
  • 232020Z VRB02KT 9999 -RA FEW028 11/10 Q1008

EXPIRED METARs :
  • 231950Z 13004KT 9999 FEW024 SCT047 11/10 Q1008
  • 231850Z 12004KT 9999 FEW024 SCT047 11/10 Q1008
  • 231820Z 13004KT 9999 FEW024 SCT047 11/10 Q1009
  • 231750Z 14004KT 9999 FEW027 SCT045 11/10 Q1009

TAF TAF EGNJ
Valid from the 23 at 21:00 until the 24 at 06:00 UTC


231957Z 2321/2406 17004KT 9999 FEW030
TEMPO 2321/2324 6000 RA
PROB40
TEMPO 2322/2404 1400 BR BKN002
TEMPO 2400/2405 8000 -RA
PROB30 2404/2406 0300 FG BKN001
ATIS : +44 1652 682 020



MET'MAP, your aeronautical weather chart ! - Copyright ORBIFLY December 2007 - Disclaimer

ORBIFLY MET'MAP TEAM :

Programming & Development : Alexandra Zaïnal
Concept & Development : Baudouin d'Aumeries
Co-Development & Prog : Marc-Olivier Méhu
Technical & hardware support : Manuel Goepfert

Contact : metmap@orbifly.com




SOURCES & CREDITS :

   NOAA